createdAt,value
2018-06-23T00:01:10.396Z,3.10
2018-06-23T00:03:40.366Z,2.93
2018-06-23T00:06:10.153Z,3.30
2018-06-23T00:08:39.993Z,3.50
2018-06-23T00:11:09.753Z,3.27
2018-06-23T00:13:39.456Z,3.57
2018-06-23T00:16:09.665Z,3.40
2018-06-23T00:18:39.380Z,2.87
2018-06-23T00:21:09.917Z,3.47
2018-06-23T00:23:39.595Z,2.97
2018-06-23T00:26:29.288Z,3.43
2018-06-23T00:28:59.993Z,3.53
2018-06-23T00:31:29.811Z,3.50
2018-06-23T00:33:59.517Z,3.43
2018-06-23T00:36:29.256Z,3.20
2018-06-23T00:38:59.456Z,3.33
2018-06-23T00:41:29.221Z,3.57
2018-06-23T00:43:59.391Z,3.77
2018-06-23T00:46:29.339Z,2.87
2018-06-23T00:48:59.082Z,3.10
2018-06-23T00:51:28.890Z,4.03
2018-06-23T00:54:00.085Z,3.43
2018-06-23T00:56:29.778Z,3.93
2018-06-23T00:59:17.309Z,3.90
2018-06-23T01:01:47.600Z,3.50
2018-06-23T01:04:17.368Z,3.70
2018-06-23T01:06:47.128Z,3.33
2018-06-23T01:09:18.376Z,3.40
2018-06-23T01:11:49.185Z,3.37
2018-06-23T01:14:19.117Z,3.70
2018-06-23T01:16:49.031Z,3.73
2018-06-23T01:19:18.789Z,4.50
2018-06-23T01:21:48.984Z,3.70
2018-06-23T01:24:18.780Z,4.23
2018-06-23T01:26:48.581Z,3.13
2018-06-23T01:29:19.232Z,3.40
2018-06-23T01:31:48.965Z,3.80
2018-06-23T01:34:18.690Z,3.70
2018-06-23T01:36:48.534Z,3.60
2018-06-23T01:39:18.699Z,3.77
2018-06-23T01:41:48.452Z,3.77
2018-06-23T01:44:18.981Z,4.00
2018-06-23T01:46:48.804Z,3.13
2018-06-23T01:49:18.625Z,3.60
2018-06-23T01:51:48.370Z,3.67
2018-06-23T01:54:18.738Z,3.63
2018-06-23T01:56:48.570Z,4.17
2018-06-23T01:59:18.401Z,4.00
2018-06-23T02:01:48.255Z,3.73
2018-06-23T02:04:17.957Z,4.57
2018-06-23T02:06:47.643Z,4.13
2018-06-23T02:09:17.324Z,4.37
2018-06-23T02:11:47.035Z,4.20
2018-06-23T02:14:22.483Z,3.63
2018-06-23T02:16:57.344Z,4.47
2018-06-23T02:19:32.318Z,3.87
2018-06-23T02:22:07.141Z,3.93
2018-06-23T02:24:42.080Z,3.63
2018-06-23T02:27:17.008Z,3.60
2018-06-23T02:29:51.721Z,4.10
2018-06-23T02:32:26.634Z,3.87
2018-06-23T02:35:11.609Z,3.80
2018-06-23T02:37:41.311Z,4.00
2018-06-23T02:40:12.142Z,4.10
2018-06-23T02:42:41.910Z,3.50
2018-06-23T02:45:12.500Z,3.80
2018-06-23T02:47:42.134Z,4.30
2018-06-23T02:50:11.838Z,4.30
2018-06-23T02:52:41.559Z,3.90
2018-06-23T02:55:11.226Z,3.70
2018-06-23T02:57:41.073Z,3.30
2018-06-23T03:00:10.846Z,4.70
2018-06-23T03:02:40.454Z,3.83
2018-06-23T03:05:10.154Z,3.90
2018-06-23T03:07:39.870Z,3.73
2018-06-23T03:10:10.011Z,3.67
2018-06-23T03:12:39.739Z,3.73
2018-06-23T03:15:10.329Z,4.00
2018-06-23T03:17:40.998Z,3.57
2018-06-23T03:20:10.898Z,3.93
2018-06-23T03:22:41.294Z,4.07
2018-06-23T03:25:10.910Z,4.23
2018-06-23T03:27:41.502Z,3.30
2018-06-23T03:30:11.834Z,3.93
2018-06-23T03:32:43.013Z,4.03
2018-06-23T03:35:13.135Z,3.87
2018-06-23T03:37:42.891Z,3.33
2018-06-23T03:40:12.999Z,4.10
2018-06-23T03:42:42.716Z,4.40
2018-06-23T03:45:12.439Z,3.87
2018-06-23T03:47:42.383Z,4.07
2018-06-23T03:50:13.548Z,3.73
2018-06-23T03:52:43.274Z,3.67
2018-06-23T03:55:12.937Z,3.70
2018-06-23T03:57:42.673Z,3.70
2018-06-23T04:00:12.362Z,4.67
2018-06-23T04:02:42.734Z,4.20
2018-06-23T04:05:13.155Z,3.60
2018-06-23T04:07:42.831Z,3.93
2018-06-23T04:10:12.542Z,3.67
2018-06-23T04:12:42.262Z,3.97
2018-06-23T04:15:11.925Z,3.87
2018-06-23T04:17:42.077Z,4.00
2018-06-23T04:20:11.729Z,4.20
2018-06-23T04:22:41.377Z,4.03
2018-06-23T04:25:11.371Z,4.43
2018-06-23T04:27:40.945Z,3.90
2018-06-23T04:30:10.655Z,4.13
2018-06-23T04:32:40.373Z,3.83
2018-06-23T04:35:10.096Z,3.70
2018-06-23T04:37:39.367Z,3.80
2018-06-23T04:40:09.151Z,4.80
2018-06-23T04:42:38.832Z,3.77
2018-06-23T04:45:08.488Z,4.70
2018-06-23T04:47:38.441Z,4.17
2018-06-23T04:50:07.798Z,3.80
2018-06-23T04:52:37.597Z,3.83
2018-06-23T04:55:07.421Z,4.23
2018-06-23T04:57:37.059Z,4.00
2018-06-23T05:00:06.823Z,4.50
2018-06-23T05:02:36.534Z,4.93
2018-06-23T05:05:07.127Z,4.00
2018-06-23T05:07:36.923Z,4.60
2018-06-23T05:10:06.594Z,3.83
2018-06-23T05:12:37.139Z,3.77
2018-06-23T05:15:07.002Z,4.60
2018-06-23T05:17:36.508Z,4.20
2018-06-23T05:20:06.270Z,3.87
2018-06-23T05:22:36.137Z,4.00
2018-06-23T05:25:06.310Z,4.50
2018-06-23T05:27:35.975Z,4.53
2018-06-23T05:30:06.240Z,4.53
2018-06-23T05:32:35.904Z,4.07
2018-06-23T05:35:07.514Z,4.10
2018-06-23T05:37:38.950Z,3.97
2018-06-23T05:40:09.574Z,3.60
2018-06-23T05:44:08.301Z,3.93
2018-06-23T05:46:37.995Z,3.60
2018-06-23T05:49:07.691Z,3.57
2018-06-23T05:51:37.558Z,3.80
2018-06-23T05:54:07.424Z,3.60
2018-06-23T05:56:37.153Z,3.50
2018-06-23T05:59:07.417Z,4.00
2018-06-23T06:01:37.500Z,3.77
2018-06-23T06:04:07.194Z,3.90
2018-06-23T06:06:36.821Z,4.23
2018-06-23T06:09:10.855Z,4.10
2018-06-23T06:11:40.549Z,4.50
2018-06-23T06:14:10.171Z,4.07
2018-06-23T06:17:24.216Z,4.33
2018-06-23T06:19:56.095Z,4.10
2018-06-23T06:22:27.862Z,3.70
2018-06-23T06:24:57.770Z,3.73
2018-06-23T06:27:27.470Z,4.43
2018-06-23T06:29:58.698Z,3.97
2018-06-23T06:32:28.872Z,4.87
2018-06-23T06:34:58.852Z,5.20
2018-06-23T06:37:28.633Z,5.17
2018-06-23T06:39:58.705Z,4.80
2018-06-23T06:42:28.415Z,5.63
2018-06-23T06:44:58.134Z,4.93
2018-06-23T06:47:27.854Z,5.53
2018-06-23T06:49:57.507Z,4.83
2018-06-23T06:52:27.179Z,4.80
2018-06-23T06:54:57.323Z,5.47
2018-06-23T06:57:27.340Z,4.73
2018-06-23T06:59:57.151Z,4.07
2018-06-23T07:02:26.847Z,3.63
2018-06-23T07:04:56.796Z,4.00
2018-06-23T07:07:26.500Z,3.20
2018-06-23T07:09:56.259Z,3.30
2018-06-23T07:12:26.034Z,3.20
2018-06-23T07:14:57.089Z,3.10
2018-06-23T07:17:26.862Z,3.30
2018-06-23T07:19:56.620Z,3.87
2018-06-23T07:22:26.333Z,3.17
2018-06-23T07:24:56.656Z,2.80
2018-06-23T07:27:26.560Z,3.20
2018-06-23T07:29:59.100Z,3.00
2018-06-23T07:32:28.841Z,3.23
2018-06-23T07:34:59.196Z,2.97
2018-06-23T07:37:30.392Z,2.90
2018-06-23T07:40:00.299Z,3.00
2018-06-23T07:42:30.786Z,2.50
2018-06-23T07:45:01.265Z,2.60
2018-06-23T07:47:33.261Z,2.60
2018-06-23T07:50:03.244Z,2.40
2018-06-23T07:52:33.305Z,2.33
2018-06-23T07:55:03.019Z,2.60
2018-06-23T07:57:32.682Z,2.70
2018-06-23T08:00:03.487Z,2.83
2018-06-23T08:02:33.270Z,3.13
2018-06-23T08:05:03.033Z,3.00
2018-06-23T08:07:32.665Z,3.40
2018-06-23T08:10:03.837Z,3.90
2018-06-23T08:12:34.247Z,4.37
2018-06-23T08:15:05.768Z,4.37
2018-06-23T08:17:38.640Z,3.60
2018-06-23T08:20:10.577Z,4.43
2018-06-23T08:22:40.274Z,4.77
2018-06-23T08:25:11.191Z,5.03
2018-06-23T08:27:42.010Z,4.17
2018-06-23T08:30:13.232Z,4.47
2018-06-23T08:32:43.997Z,4.10
2018-06-23T08:35:15.382Z,4.30
2018-06-23T08:37:46.663Z,4.20
2018-06-23T08:40:17.633Z,4.03
2018-06-23T08:42:48.982Z,4.07
2018-06-23T08:45:21.587Z,3.90
2018-06-23T08:47:54.357Z,4.10
2018-06-23T08:50:26.477Z,4.03
2018-06-23T08:53:00.358Z,3.27
2018-06-23T08:55:32.480Z,4.03
2018-06-23T08:58:03.278Z,3.97
2018-06-23T09:00:38.985Z,3.67
2018-06-23T09:03:12.505Z,4.07
2018-06-23T09:05:43.345Z,3.77
2018-06-23T09:08:13.947Z,4.13
2018-06-23T09:10:46.340Z,3.10
2018-06-23T09:13:17.650Z,4.03
2018-06-23T09:15:47.548Z,3.60
2018-06-23T09:18:17.736Z,3.97
2018-06-23T09:20:48.200Z,3.70
2018-06-23T09:23:18.785Z,4.10
2018-06-23T09:25:51.718Z,3.30
2018-06-23T09:28:22.275Z,3.30
2018-06-23T09:30:53.285Z,4.00
2018-06-23T09:33:24.272Z,3.33
2018-06-23T09:36:00.202Z,3.27
2018-06-23T09:38:31.904Z,4.57
2018-06-23T09:41:01.649Z,3.40
2018-06-23T09:43:31.448Z,3.20
2018-06-23T09:46:02.179Z,2.70
2018-06-23T09:48:33.393Z,3.33
2018-06-23T09:51:06.560Z,3.20
2018-06-23T09:53:38.724Z,3.07
2018-06-23T09:56:09.487Z,2.90
2018-06-23T09:58:40.807Z,3.43
2018-06-23T10:01:14.690Z,3.53
2018-06-23T10:03:44.598Z,3.33
2018-06-23T10:06:14.239Z,3.60
2018-06-23T10:08:45.683Z,2.93
2018-06-23T10:11:16.803Z,3.20
2018-06-23T10:13:46.419Z,2.50
2018-06-23T10:16:17.006Z,3.00
2018-06-23T10:18:49.576Z,2.70
2018-06-23T10:21:19.420Z,2.73
2018-06-23T10:23:50.079Z,2.90
2018-06-23T10:26:20.193Z,3.10
2018-06-23T10:28:50.355Z,3.13
2018-06-23T10:31:21.146Z,2.50
2018-06-23T10:33:50.495Z,2.80
2018-06-23T10:36:21.832Z,2.98
2018-06-23T10:38:51.851Z,3.00
2018-06-23T10:41:21.703Z,3.10
2018-06-23T10:43:51.474Z,3.00
2018-06-23T10:46:23.103Z,3.40
2018-06-23T10:48:53.271Z,2.87
2018-06-23T10:51:23.930Z,2.70
2018-06-23T10:53:54.906Z,3.30
2018-06-23T10:56:26.497Z,2.83
2018-06-23T10:58:56.372Z,3.00
2018-06-23T11:01:28.591Z,3.10
2018-06-23T11:03:59.914Z,3.13
2018-06-23T11:06:30.670Z,3.10
2018-06-23T11:09:00.319Z,3.20
2018-06-23T11:11:29.979Z,2.90
2018-06-23T11:14:03.105Z,3.13
2018-06-23T11:16:33.241Z,3.07
2018-06-23T11:19:03.595Z,3.00
2018-06-23T11:21:33.653Z,2.93
2018-06-23T11:24:03.866Z,2.80
2018-06-23T11:26:33.583Z,3.07
2018-06-23T11:29:03.491Z,3.30
2018-06-23T11:31:33.448Z,3.10
2018-06-23T11:34:03.383Z,3.00
2018-06-23T11:36:34.581Z,3.47
2018-06-23T11:39:06.672Z,3.20
2018-06-23T11:41:36.500Z,3.17
2018-06-23T11:44:06.226Z,3.47
2018-06-23T11:46:39.069Z,3.27
2018-06-23T11:49:08.650Z,3.23
2018-06-23T11:51:39.010Z,3.73
2018-06-23T11:54:08.730Z,3.00
2018-06-23T11:56:38.455Z,3.23
2018-06-23T11:59:09.141Z,3.30
2018-06-23T12:01:38.876Z,3.90
2018-06-23T12:04:08.938Z,3.37
2018-06-23T12:06:40.134Z,3.20
2018-06-23T12:09:09.881Z,3.37
2018-06-23T12:11:41.071Z,3.63
2018-06-23T12:14:10.924Z,3.53
2018-06-23T12:16:41.462Z,3.90
2018-06-23T12:19:11.784Z,3.60
2018-06-23T12:21:41.778Z,3.93
2018-06-23T12:24:11.765Z,3.37
2018-06-23T12:26:46.468Z,3.83
2018-06-23T12:29:20.055Z,3.70
2018-06-23T12:31:49.862Z,3.53
2018-06-23T12:34:20.291Z,3.47
2018-06-23T12:36:51.018Z,3.60
2018-06-23T12:39:20.747Z,4.17
2018-06-23T12:41:51.267Z,3.43
2018-06-23T12:44:21.676Z,3.20
2018-06-23T12:46:51.317Z,3.30
2018-06-23T12:49:20.971Z,3.47
2018-06-23T12:51:50.672Z,3.27
2018-06-23T12:54:20.420Z,3.80
2018-06-23T12:56:50.589Z,3.50
2018-06-23T12:59:20.366Z,3.30
2018-06-23T13:01:50.854Z,3.10
2018-06-23T13:04:20.993Z,3.40
2018-06-23T13:06:51.343Z,3.77
2018-06-23T13:09:21.150Z,3.33
2018-06-23T13:11:50.839Z,3.57
2018-06-23T13:14:20.698Z,3.27
2018-06-23T13:16:50.725Z,3.60
2018-06-23T13:19:20.533Z,3.20
2018-06-23T13:21:53.261Z,3.90
2018-06-23T13:24:23.987Z,3.63
2018-06-23T13:26:54.636Z,3.17
2018-06-23T13:29:24.311Z,3.43
2018-06-23T13:31:54.712Z,3.33
2018-06-23T13:34:26.244Z,3.97
2018-06-23T13:36:56.029Z,4.07
2018-06-23T13:39:25.794Z,3.53
2018-06-23T13:41:56.517Z,3.63
2018-06-23T13:44:27.948Z,3.60
2018-06-23T13:47:00.016Z,3.37
2018-06-23T13:49:29.989Z,3.53
2018-06-23T13:52:00.612Z,3.67
2018-06-23T13:54:30.432Z,3.43
2018-06-23T13:57:01.485Z,3.43
2018-06-23T13:59:31.215Z,3.80
2018-06-23T14:02:00.968Z,3.43
2018-06-23T14:04:30.705Z,3.77
2018-06-23T14:07:01.477Z,3.20
2018-06-23T14:09:31.153Z,3.20
2018-06-23T14:12:02.690Z,3.53
2018-06-23T14:14:33.983Z,3.70
2018-06-23T14:17:05.363Z,3.60
2018-06-23T14:19:35.076Z,3.37
2018-06-23T14:22:05.745Z,3.57
2018-06-23T14:24:38.380Z,3.90
2018-06-23T14:27:14.375Z,3.90
2018-06-23T14:29:48.524Z,3.70
2018-06-23T14:32:20.107Z,3.63
2018-06-23T14:34:52.923Z,3.70
2018-06-23T14:37:26.666Z,3.90
2018-06-23T14:40:00.405Z,3.27
2018-06-23T14:42:31.253Z,3.40
2018-06-23T14:45:06.100Z,3.70
2018-06-23T14:47:36.658Z,6.00
2018-06-23T14:50:07.494Z,4.30
2018-06-23T14:52:37.503Z,4.20
2018-06-23T14:55:07.234Z,5.00
2018-06-23T14:57:39.362Z,6.57
2018-06-23T15:00:09.405Z,4.50
2018-06-23T15:02:39.785Z,4.63
2018-06-23T15:05:10.442Z,4.10
2018-06-23T15:07:41.305Z,5.13
2018-06-23T15:10:29.868Z,4.00
2018-06-23T15:13:14.847Z,4.53
2018-06-23T15:15:46.718Z,5.30
2018-06-23T15:18:22.083Z,3.93
2018-06-23T15:20:52.313Z,3.23
2018-06-23T15:23:22.836Z,3.90
2018-06-23T15:25:52.624Z,4.07
2018-06-23T15:28:22.355Z,3.40
2018-06-23T15:30:52.173Z,3.23
2018-06-23T15:33:21.951Z,3.37
2018-06-23T15:35:52.640Z,3.20
2018-06-23T15:38:22.246Z,3.60
2018-06-23T15:40:51.885Z,3.00
2018-06-23T15:43:22.339Z,3.00
2018-06-23T15:45:51.965Z,3.50
2018-06-23T15:48:21.653Z,3.27
2018-06-23T15:50:51.327Z,3.33
2018-06-23T15:53:20.942Z,3.17
2018-06-23T15:55:50.925Z,3.17
2018-06-23T15:58:21.587Z,3.23
2018-06-23T16:00:52.381Z,2.97
2018-06-23T16:03:22.069Z,3.57
2018-06-23T16:05:52.245Z,3.30
2018-06-23T16:08:22.127Z,3.13
2018-06-23T16:10:51.822Z,3.57
2018-06-23T16:13:21.725Z,3.07
2018-06-23T16:15:52.722Z,3.50
2018-06-23T16:18:22.432Z,3.30
2018-06-23T16:20:52.783Z,3.57
2018-06-23T16:23:22.505Z,3.30
2018-06-23T16:25:52.366Z,3.13
2018-06-23T16:28:23.244Z,3.60
2018-06-23T16:30:54.020Z,3.33
2018-06-23T16:33:23.895Z,4.17
2018-06-23T16:35:54.002Z,3.20
2018-06-23T16:38:24.272Z,3.57
2018-06-23T16:40:55.811Z,3.60
2018-06-23T16:43:25.848Z,3.37
2018-06-23T16:45:55.561Z,3.77
2018-06-23T16:48:25.914Z,3.55
2018-06-23T16:50:55.975Z,3.50
2018-06-23T16:53:25.693Z,3.93
2018-06-23T16:55:55.524Z,3.50
2018-06-23T16:58:26.614Z,3.53
2018-06-23T17:00:56.482Z,3.23
2018-06-23T17:03:26.738Z,3.17
2018-06-23T17:05:57.056Z,3.57
2018-06-23T17:08:27.302Z,3.80
2018-06-23T17:10:58.714Z,3.27
2018-06-23T17:13:28.518Z,3.73
2018-06-23T17:15:57.887Z,3.50
2018-06-23T17:18:27.599Z,3.60
2018-06-23T17:20:57.341Z,3.47
2018-06-23T17:23:26.994Z,3.57
2018-06-23T17:25:56.738Z,3.00
2018-06-23T17:28:26.408Z,3.10
2018-06-23T17:30:56.173Z,3.50
2018-06-23T17:33:26.042Z,3.67
2018-06-23T17:35:56.257Z,3.20
2018-06-23T17:38:26.172Z,3.50
2018-06-23T17:40:56.052Z,3.40
2018-06-23T17:43:25.887Z,3.53
2018-06-23T17:45:55.573Z,3.10
2018-06-23T17:48:24.858Z,3.50
2018-06-23T17:50:54.528Z,3.20
2018-06-23T17:53:24.972Z,3.27
2018-06-23T17:55:54.798Z,3.80
2018-06-23T17:58:25.697Z,3.30
2018-06-23T18:00:55.510Z,3.13
2018-06-23T18:03:26.035Z,3.13
2018-06-23T18:05:56.382Z,2.90
2018-06-23T18:08:26.139Z,3.97
2018-06-23T18:10:55.904Z,3.43
2018-06-23T18:13:26.246Z,3.40
2018-06-23T18:15:55.927Z,2.90
2018-06-23T18:18:26.463Z,3.10
2018-06-23T18:20:57.128Z,3.13
2018-06-23T18:23:27.286Z,2.93
2018-06-23T18:25:57.711Z,3.83
2018-06-23T18:28:27.721Z,3.53
2018-06-23T18:30:57.676Z,3.00
2018-06-23T18:33:27.482Z,3.43
2018-06-23T18:35:57.264Z,3.47
2018-06-23T18:38:27.027Z,3.70
2018-06-23T18:40:56.919Z,3.20
2018-06-23T18:43:26.637Z,3.30
2018-06-23T18:45:56.410Z,2.90
2018-06-23T18:48:26.136Z,3.65
2018-06-23T18:50:55.969Z,3.37
2018-06-23T18:53:25.744Z,3.60
2018-06-23T18:55:55.220Z,3.30
2018-06-23T18:58:25.883Z,3.20
2018-06-23T19:00:55.825Z,3.67
2018-06-23T19:03:25.528Z,3.23
2018-06-23T19:05:55.340Z,4.13
2018-06-23T19:08:25.084Z,3.97
2018-06-23T19:10:54.814Z,7.00
2018-06-23T19:13:25.334Z,4.53
2018-06-23T19:15:56.696Z,5.83
2018-06-23T19:18:26.503Z,4.03
2018-06-23T19:20:57.031Z,4.20
2018-06-23T19:23:27.306Z,3.60
2018-06-23T19:25:57.045Z,3.87
2018-06-23T19:28:26.886Z,3.60
2018-06-23T19:30:57.986Z,3.60
2018-06-23T19:33:28.779Z,3.80
2018-06-23T19:35:58.458Z,3.73
2018-06-23T19:38:28.378Z,4.17
2018-06-23T19:40:58.861Z,4.00
2018-06-23T19:43:28.473Z,4.03
2018-06-23T19:45:58.229Z,3.50
2018-06-23T19:48:28.367Z,3.60
2018-06-23T19:50:58.558Z,3.93
2018-06-23T19:53:28.202Z,3.70
2018-06-23T19:55:58.035Z,4.00
2018-06-23T19:58:27.804Z,4.10
2018-06-23T20:00:57.857Z,4.37
2018-06-23T20:03:27.569Z,4.30
2018-06-23T20:05:57.299Z,4.40
2018-06-23T20:08:27.904Z,4.00
2018-06-23T20:10:58.116Z,3.60
2018-06-23T20:13:27.957Z,3.55
2018-06-23T20:15:58.026Z,3.87
2018-06-23T20:18:28.574Z,3.92
2018-06-23T20:20:59.213Z,3.80
2018-06-23T20:23:28.974Z,3.60
2018-06-23T20:25:59.114Z,3.50
2018-06-23T20:28:28.983Z,4.13
2018-06-23T20:30:58.672Z,4.20
2018-06-23T20:33:28.406Z,3.60
2018-06-23T20:35:58.608Z,4.07
2018-06-23T20:38:29.004Z,4.03
2018-06-23T20:40:58.724Z,3.83
2018-06-23T20:43:28.625Z,3.87
2018-06-23T20:45:58.389Z,3.73
2018-06-23T20:48:28.338Z,3.80
2018-06-23T20:50:58.037Z,4.10
2018-06-23T20:53:28.852Z,4.33
2018-06-23T20:55:59.133Z,3.90
2018-06-23T20:58:28.943Z,3.80
2018-06-23T21:00:58.855Z,3.73
2018-06-23T21:03:30.017Z,3.60
2018-06-23T21:05:59.800Z,3.50
2018-06-23T21:08:29.613Z,3.90
2018-06-23T21:11:00.034Z,3.40
2018-06-23T21:13:29.710Z,3.40
2018-06-23T21:16:00.096Z,3.50
2018-06-23T21:18:29.459Z,3.60
2018-06-23T21:20:59.283Z,3.60
2018-06-23T21:23:29.106Z,3.27
2018-06-23T21:25:58.832Z,2.93
2018-06-23T21:28:29.315Z,2.50
2018-06-23T21:31:00.605Z,3.00
2018-06-23T21:33:30.454Z,2.87
2018-06-23T21:36:00.448Z,3.10
2018-06-23T21:38:30.460Z,2.60
2018-06-23T21:41:00.106Z,2.77
2018-06-23T21:43:29.830Z,2.43
2018-06-23T21:46:00.311Z,2.90
2018-06-23T21:48:30.165Z,2.47
2018-06-23T21:50:59.857Z,2.77
2018-06-23T21:53:29.768Z,2.67
2018-06-23T21:55:59.505Z,2.20
2018-06-23T21:58:29.398Z,2.30
2018-06-23T22:00:59.050Z,2.23
2018-06-23T22:03:28.695Z,2.20
2018-06-23T22:06:00.456Z,2.40
2018-06-23T22:08:30.135Z,2.40
2018-06-23T22:10:59.604Z,1.90
2018-06-23T22:13:29.309Z,2.17
2018-06-23T22:15:58.988Z,2.20
2018-06-23T22:18:30.712Z,2.10
2018-06-23T22:21:01.944Z,1.90
2018-06-23T22:23:32.009Z,2.20
2018-06-23T22:26:01.772Z,2.20
2018-06-23T22:28:33.770Z,2.43
2018-06-23T22:31:03.595Z,2.30
2018-06-23T22:33:33.795Z,2.30
2018-06-23T22:36:03.212Z,2.30
2018-06-23T22:38:33.843Z,2.87
2018-06-23T22:41:04.508Z,2.20
2018-06-23T22:43:34.247Z,2.50
2018-06-23T22:46:04.065Z,2.20
2018-06-23T22:48:34.447Z,2.27
2018-06-23T22:51:04.719Z,2.20
2018-06-23T22:53:41.370Z,1.97
2018-06-23T22:56:12.012Z,2.30
2018-06-23T22:58:42.706Z,2.20
2018-06-23T23:01:12.506Z,1.93
2018-06-23T23:03:42.461Z,2.20
2018-06-23T23:06:12.106Z,2.20
2018-06-23T23:08:42.503Z,2.27
2018-06-23T23:11:13.208Z,2.10
2018-06-23T23:13:42.912Z,2.50
2018-06-23T23:16:12.635Z,2.37
2018-06-23T23:18:42.388Z,2.27
2018-06-23T23:21:27.752Z,2.30
2018-06-23T23:23:57.616Z,2.27
2018-06-23T23:26:28.056Z,2.50
2018-06-23T23:28:58.526Z,2.57
2018-06-23T23:31:28.393Z,2.47
2018-06-23T23:33:58.110Z,2.33
2018-06-23T23:36:27.850Z,2.90
2018-06-23T23:38:57.823Z,2.53
2018-06-23T23:41:28.232Z,2.80
2018-06-23T23:43:57.857Z,2.40
2018-06-23T23:46:27.733Z,3.10
2018-06-23T23:49:00.384Z,2.77
2018-06-23T23:51:30.090Z,2.90
2018-06-23T23:54:00.153Z,2.53
2018-06-23T23:56:29.584Z,3.17
2018-06-23T23:58:59.971Z,2.57
